createdAt,value
2023-02-27T00:02:13.398Z,4.40
2023-02-27T00:07:16.047Z,5.53
2023-02-27T00:12:18.703Z,6.93
2023-02-27T00:17:25.738Z,2.97
2023-02-27T00:22:28.431Z,6.80
2023-02-27T00:27:32.586Z,4.77
2023-02-27T00:32:36.979Z,6.73
2023-02-27T00:37:40.332Z,5.30
2023-02-27T00:42:43.226Z,3.17
2023-02-27T00:47:47.641Z,5.93
2023-02-27T00:52:50.344Z,3.33
2023-02-27T00:57:53.023Z,5.03
2023-02-27T01:02:57.046Z,3.83
2023-02-27T01:07:59.692Z,6.73
2023-02-27T01:13:02.362Z,4.77
2023-02-27T01:18:06.387Z,5.53
2023-02-27T01:23:09.075Z,8.30
2023-02-27T01:28:11.713Z,6.80
2023-02-27T01:33:16.023Z,4.83
2023-02-27T01:38:18.784Z,4.97
2023-02-27T01:43:23.177Z,5.30
2023-02-27T01:48:30.263Z,5.87
2023-02-27T01:53:35.506Z,5.93
2023-02-27T01:58:39.059Z,5.53
2023-02-27T02:03:48.454Z,4.47
2023-02-27T02:08:52.514Z,2.80
2023-02-27T02:13:58.855Z,4.10
2023-02-27T02:19:15.777Z,4.50
2023-02-27T02:25:05.687Z,6.23
2023-02-27T02:30:57.617Z,8.17
2023-02-27T02:41:36.034Z,5.67
2023-02-27T02:46:48.754Z,5.07
2023-02-27T02:51:56.471Z,5.17
2023-02-27T02:57:06.252Z,7.87
2023-02-27T03:02:12.050Z,11.17
2023-02-27T03:07:20.314Z,6.03
2023-02-27T03:12:26.690Z,7.97
2023-02-27T03:17:40.088Z,6.87
2023-02-27T03:22:48.396Z,6.17
2023-02-27T03:27:57.320Z,5.50
2023-02-27T03:33:05.691Z,6.60
2023-02-27T03:38:19.208Z,9.33
2023-02-27T03:43:31.550Z,4.83
2023-02-27T03:48:34.542Z,3.73
2023-02-27T03:53:42.982Z,8.67
2023-02-27T03:58:47.110Z,5.60
2023-02-27T04:03:55.385Z,10.47
2023-02-27T04:09:06.987Z,5.63
2023-02-27T04:14:27.558Z,6.50
2023-02-27T04:19:42.799Z,8.70
2023-02-27T04:24:56.495Z,6.73
2023-02-27T04:30:11.376Z,6.20
2023-02-27T04:35:18.575Z,7.00
2023-02-27T04:40:24.827Z,5.27
2023-02-27T04:45:31.993Z,7.00
2023-02-27T04:50:38.077Z,5.47
2023-02-27T04:55:46.690Z,6.43
2023-02-27T05:00:55.880Z,6.50
2023-02-27T05:06:01.392Z,4.83
2023-02-27T05:11:10.185Z,8.00
2023-02-27T05:16:20.785Z,7.10
2023-02-27T05:21:28.585Z,6.90
2023-02-27T05:26:45.339Z,7.53
2023-02-27T05:31:54.529Z,10.13
2023-02-27T05:37:01.187Z,5.10
2023-02-27T05:42:08.083Z,4.57
2023-02-27T05:47:16.275Z,10.50
2023-02-27T05:52:24.052Z,10.20
2023-02-27T05:57:34.387Z,9.60
2023-02-27T06:02:38.881Z,17.80
2023-02-27T06:07:41.954Z,11.40
2023-02-27T06:12:44.592Z,5.73
2023-02-27T06:17:48.579Z,8.83
2023-02-27T06:22:51.254Z,6.03
2023-02-27T06:27:54.054Z,8.13
2023-02-27T06:32:58.258Z,7.20
2023-02-27T06:38:01.156Z,8.57
2023-02-27T06:43:03.781Z,7.57
2023-02-27T06:48:12.542Z,8.47
2023-02-27T06:53:15.171Z,9.80
2023-02-27T06:58:18.653Z,6.47
2023-02-27T07:03:22.595Z,6.87
2023-02-27T07:08:25.452Z,5.77
2023-02-27T07:13:28.161Z,8.20
2023-02-27T07:18:32.154Z,5.93
2023-02-27T07:23:35.223Z,5.27
2023-02-27T07:28:38.049Z,5.60
2023-02-27T07:33:42.057Z,6.73
2023-02-27T07:38:44.796Z,7.20
2023-02-27T07:43:48.279Z,7.03
2023-02-27T07:48:52.350Z,7.20
2023-02-27T07:53:56.712Z,8.17
2023-02-27T07:58:59.442Z,7.90
2023-02-27T08:04:03.697Z,8.63
2023-02-27T08:09:07.131Z,9.63
2023-02-27T08:14:09.884Z,6.10
2023-02-27T08:19:15.160Z,11.87
2023-02-27T08:24:17.933Z,9.17
2023-02-27T08:29:20.708Z,8.63
2023-02-27T08:34:25.601Z,12.33
2023-02-27T08:39:28.402Z,6.90
2023-02-27T08:44:31.081Z,6.60
2023-02-27T08:49:35.147Z,5.33
2023-02-27T08:54:38.175Z,9.70
2023-02-27T08:59:40.863Z,4.80
2023-02-27T09:04:45.023Z,9.93
2023-02-27T09:09:49.944Z,5.47
2023-02-27T09:14:52.848Z,5.93
2023-02-27T09:19:57.528Z,5.37
2023-02-27T09:25:00.271Z,6.20
2023-02-27T09:30:03.241Z,7.13
2023-02-27T09:35:09.387Z,5.50
2023-02-27T09:40:23.438Z,5.43
2023-02-27T09:45:27.768Z,3.20
2023-02-27T09:50:38.540Z,4.03
2023-02-27T09:55:43.545Z,3.30
2023-02-27T10:00:49.756Z,4.33
2023-02-27T10:06:23.731Z,4.97
2023-02-27T10:11:36.940Z,4.77
2023-02-27T10:16:41.034Z,4.73
2023-02-27T10:21:47.565Z,5.27
2023-02-27T10:26:53.965Z,3.10
2023-02-27T10:32:03.154Z,4.40
2023-02-27T10:37:11.389Z,4.50
2023-02-27T10:42:16.107Z,4.73
2023-02-27T10:47:23.194Z,3.40
2023-02-27T10:52:27.657Z,2.57
2023-02-27T10:57:33.443Z,2.97
2023-02-27T11:02:39.085Z,3.53
2023-02-27T11:07:43.160Z,3.17
2023-02-27T11:13:00.801Z,3.67
2023-02-27T11:18:21.548Z,3.20
2023-02-27T11:23:26.485Z,3.00
2023-02-27T11:28:31.535Z,2.17
2023-02-27T11:33:39.064Z,3.40
2023-02-27T11:38:43.204Z,4.43
2023-02-27T11:43:50.924Z,5.10
2023-02-27T11:48:58.463Z,5.77
2023-02-27T11:54:16.692Z,3.53
2023-02-27T11:59:29.500Z,5.13
2023-02-27T12:04:44.203Z,4.40
2023-02-27T12:09:54.615Z,1.97
2023-02-27T12:15:05.927Z,1.43
2023-02-27T12:20:24.325Z,3.37
2023-02-27T12:25:41.866Z,1.83
2023-02-27T12:30:51.078Z,1.47
2023-02-27T12:36:01.126Z,2.40
2023-02-27T12:41:27.546Z,2.80
2023-02-27T12:46:41.422Z,2.73
2023-02-27T12:51:52.006Z,1.63
2023-02-27T12:57:09.199Z,2.77
2023-02-27T13:02:31.376Z,4.20
2023-02-27T13:07:38.682Z,3.27
2023-02-27T13:12:49.794Z,3.10
2023-02-27T13:17:58.943Z,2.33
2023-02-27T13:23:12.340Z,1.90
2023-02-27T13:28:21.345Z,3.13
2023-02-27T13:33:31.907Z,4.05
2023-02-27T13:38:43.758Z,1.50
2023-02-27T13:43:52.590Z,2.80
2023-02-27T13:48:57.664Z,3.80
2023-02-27T13:54:28.524Z,2.37
2023-02-27T13:59:37.051Z,0.80
2023-02-27T14:04:49.925Z,1.23
2023-02-27T14:10:02.100Z,0.98
2023-02-27T14:15:30.120Z,1.48
2023-02-27T14:20:50.694Z,1.05
2023-02-27T14:25:55.724Z,1.73
2023-02-27T14:31:04.063Z,2.37
2023-02-27T14:36:12.933Z,1.93
2023-02-27T14:41:36.925Z,0.97
2023-02-27T14:46:41.264Z,2.37
2023-02-27T14:51:45.153Z,16.17
2023-02-27T14:56:55.220Z,3.70
2023-02-27T15:02:01.988Z,3.47
2023-02-27T15:07:05.098Z,2.33
2023-02-27T15:12:08.079Z,3.50
2023-02-27T15:17:18.329Z,1.97
2023-02-27T15:22:38.183Z,1.90
2023-02-27T15:27:43.064Z,3.67
2023-02-27T15:32:47.107Z,1.37
2023-02-27T15:37:53.631Z,8.33
2023-02-27T15:42:57.435Z,2.73
2023-02-27T15:48:04.598Z,8.47
2023-02-27T15:53:13.503Z,2.60
2023-02-27T15:58:24.786Z,7.33
2023-02-27T16:03:33.030Z,3.90
2023-02-27T16:08:35.935Z,7.87
2023-02-27T16:13:40.569Z,4.13
2023-02-27T16:18:48.528Z,2.90
2023-02-27T16:23:52.126Z,6.57
2023-02-27T16:28:56.908Z,3.93
2023-02-27T16:34:03.282Z,1.47
2023-02-27T16:39:08.289Z,2.50
2023-02-27T16:44:10.937Z,2.33
2023-02-27T16:49:22.407Z,3.33
2023-02-27T16:54:25.759Z,4.40
2023-02-27T16:59:31.290Z,3.33
2023-02-27T17:04:36.132Z,3.83
2023-02-27T17:09:39.010Z,6.63
2023-02-27T17:14:41.670Z,5.00
2023-02-27T17:19:46.142Z,5.47
2023-02-27T17:24:48.829Z,5.07
2023-02-27T17:29:51.539Z,5.33
2023-02-27T17:34:56.015Z,10.07
2023-02-27T17:39:58.714Z,5.73
2023-02-27T17:45:05.561Z,8.37
2023-02-27T17:50:10.834Z,5.97
2023-02-27T17:55:15.788Z,5.00
2023-02-27T18:00:19.142Z,5.00
2023-02-27T18:05:23.150Z,6.67
2023-02-27T18:10:25.776Z,8.77
2023-02-27T18:15:28.480Z,10.63
2023-02-27T18:20:32.593Z,11.30
2023-02-27T18:25:36.661Z,6.20
2023-02-27T18:30:41.266Z,8.87
2023-02-27T18:35:45.360Z,6.40
2023-02-27T18:40:48.325Z,11.07
2023-02-27T18:45:50.981Z,9.10
2023-02-27T18:51:00.328Z,5.80
2023-02-27T18:56:05.430Z,9.30
2023-02-27T19:01:12.171Z,9.73
2023-02-27T19:06:20.703Z,8.87
2023-02-27T19:40:10.297Z,10.30
2023-02-27T19:45:13.268Z,9.67
2023-02-27T19:50:16.233Z,10.63
2023-02-27T19:55:20.446Z,10.93
2023-02-27T20:00:24.097Z,12.50
2023-02-27T20:05:32.819Z,14.10
2023-02-27T20:16:05.650Z,10.33
2023-02-27T20:21:19.274Z,9.37
2023-02-27T20:26:47.895Z,11.43
2023-02-27T20:32:09.895Z,11.90
2023-02-27T20:37:40.121Z,13.33
2023-02-27T21:00:49.239Z,12.00
2023-02-27T21:05:52.491Z,13.83
2023-02-27T21:10:55.180Z,9.43
2023-02-27T21:16:02.121Z,13.30
2023-02-27T21:21:08.544Z,12.37
2023-02-27T21:26:19.660Z,13.50
2023-02-27T21:31:31.011Z,16.60
2023-02-27T21:36:39.296Z,14.93
2023-02-27T22:09:53.534Z,15.40
2023-02-27T23:44:46.154Z,10.80
2023-02-27T23:50:58.160Z,11.00
2023-02-27T23:56:58.575Z,10.80
